Time;durP1;ratioP1;P1;durP2;ratioP2;P2;SDS_P1;SDS_P2;PMS_P1;PMS_P2;Temp;Humidity;BMP_temperature;BMP_pressure;BME280_temperature;BME280_humidity;BME280_pressure;Samples;Min_cycle;Max_cycle;Signal;HPM_P1;HPM_P2
2022/08/30 00:02:16;;;;;;;21.85;10.25;;;;;;;;;;4995888;28;20126;-79
2022/08/30 00:04:42;;;;;;;18.77;10.18;;;;;;;;;;4985057;28;20046;-80
2022/08/30 00:07:08;;;;;;;20.75;9.93;;;;;;;;;;4984340;28;20038;-79
2022/08/30 00:09:34;;;;;;;22.77;10.45;;;;;;;;;;5001594;28;20121;-81
2022/08/30 00:12:00;;;;;;;16.67;9.15;;;;;;;;;;4986733;28;20112;-81
2022/08/30 00:14:26;;;;;;;21.13;10.75;;;;;;;;;;5000017;28;20019;-82
2022/08/30 00:16:53;;;;;;;16.83;9.90;;;;;;;;;;4985489;28;20056;-81
2022/08/30 00:19:19;;;;;;;21.10;9.85;;;;;;;;;;5002609;28;20042;-81
2022/08/30 00:21:45;;;;;;;17.92;10.68;;;;;;;;;;4985568;28;20120;-81
2022/08/30 00:24:11;;;;;;;17.58;11.20;;;;;;;;;;5002713;28;20044;-81
2022/08/30 00:26:38;;;;;;;20.63;11.65;;;;;;;;;;5002485;28;20109;-81
2022/08/30 00:29:04;;;;;;;20.30;12.52;;;;;;;;;;5005312;28;20034;-83
2022/08/30 00:31:32;;;;;;;18.48;11.77;;;;;;;;;;5000362;28;20488;-78
2022/08/30 00:33:58;;;;;;;17.00;11.73;;;;;;;;;;4980791;28;20048;-79
2022/08/30 00:36:24;;;;;;;22.67;12.73;;;;;;;;;;4978054;28;20081;-77
2022/08/30 00:38:50;;;;;;;19.45;12.10;;;;;;;;;;4976204;28;20027;-78
2022/08/30 00:41:16;;;;;;;24.08;12.68;;;;;;;;;;4975705;28;20102;-78
2022/08/30 00:43:42;;;;;;;23.00;13.48;;;;;;;;;;4997103;28;20464;-77
2022/08/30 00:46:09;;;;;;;23.40;13.13;;;;;;;;;;4978006;28;20608;-78
2022/08/30 00:48:40;;;;;;;21.90;13.13;;;;;;;;;;4981748;28;20061;-79
2022/08/30 00:51:09;;;;;;;25.65;13.02;;;;;;;;;;4989781;28;20026;-79
2022/08/30 00:53:36;;;;;;;21.67;13.48;;;;;;;;;;4992927;28;20108;-79
2022/08/30 00:56:04;;;;;;;26.92;13.48;;;;;;;;;;4992545;28;20041;-78
2022/08/30 00:58:48;;;;;;;24.33;13.75;;;;;;;;;;4991306;28;20069;-78
2022/08/30 01:01:14;;;;;;;30.23;14.20;;;;;;;;;;4986136;28;20034;-78
2022/08/30 01:03:42;;;;;;;24.55;13.57;;;;;;;;;;4989344;28;20031;-78
2022/08/30 01:06:08;;;;;;;22.98;13.68;;;;;;;;;;4988688;28;20044;-78
2022/08/30 01:08:54;;;;;;;22.55;13.52;;;;;;;;;;4992043;28;20036;-78
2022/08/30 01:11:24;;;;;;;22.40;13.93;;;;;;;;;;4980452;28;20042;-78
2022/08/30 01:13:51;;;;;;;25.95;14.40;;;;;;;;;;4989332;28;20022;-78
2022/08/30 01:16:17;;;;;;;27.42;15.00;;;;;;;;;;4991756;28;20383;-78
2022/08/30 01:18:43;;;;;;;28.15;14.63;;;;;;;;;;4992192;28;20030;-77
2022/08/30 01:21:19;;;;;;;28.85;15.38;;;;;;;;;;4987887;28;20038;-78
2022/08/30 01:23:46;;;;;;;24.02;15.23;;;;;;;;;;4988622;28;20026;-78
2022/08/30 01:26:13;;;;;;;26.05;16.33;;;;;;;;;;4989119;28;20030;-78
2022/08/30 01:28:40;;;;;;;29.42;16.55;;;;;;;;;;4990405;28;20089;-78
2022/08/30 01:31:06;;;;;;;28.67;15.85;;;;;;;;;;4978372;28;20034;-78
2022/08/30 01:33:33;;;;;;;37.15;18.55;;;;;;;;;;4976341;28;20133;-78
2022/08/30 01:36:01;;;;;;;27.52;16.75;;;;;;;;;;4992087;28;20030;-78
2022/08/30 01:38:34;;;;;;;27.70;16.20;;;;;;;;;;4990407;28;20027;-76
2022/08/30 01:41:08;;;;;;;21.65;15.23;;;;;;;;;;4987232;28;20034;-76
2022/08/30 01:43:34;;;;;;;29.42;17.35;;;;;;;;;;4985986;28;20047;-75
2022/08/30 01:46:01;;;;;;;27.85;16.95;;;;;;;;;;4991991;28;20061;-76
2022/08/30 01:48:27;;;;;;;28.42;17.73;;;;;;;;;;4991668;28;20129;-76
2022/08/30 01:50:54;;;;;;;30.90;18.48;;;;;;;;;;4982677;28;20118;-77
2022/08/30 01:53:20;;;;;;;35.08;19.30;;;;;;;;;;4977039;28;20054;-76
2022/08/30 01:55:46;;;;;;;30.85;17.85;;;;;;;;;;4977891;28;20023;-77
2022/08/30 01:58:12;;;;;;;28.83;18.80;;;;;;;;;;4996271;28;20083;-77
2022/08/30 02:00:38;;;;;;;35.38;19.15;;;;;;;;;;4992440;28;20066;-76
2022/08/30 02:03:05;;;;;;;34.70;20.55;;;;;;;;;;4990821;28;20027;-77
2022/08/30 02:05:31;;;;;;;37.35;21.25;;;;;;;;;;4967501;28;20093;-77
2022/08/30 02:07:57;;;;;;;35.65;20.95;;;;;;;;;;4977635;28;20029;-77
2022/08/30 02:10:23;;;;;;;36.00;20.75;;;;;;;;;;4986864;28;20027;-77
2022/08/30 02:12:49;;;;;;;35.95;21.08;;;;;;;;;;4998871;28;20058;-80
2022/08/30 02:15:16;;;;;;;36.38;21.13;;;;;;;;;;5000968;28;20030;-76
2022/08/30 02:17:42;;;;;;;36.03;21.75;;;;;;;;;;5000819;28;20041;-77
2022/08/30 02:20:08;;;;;;;39.50;22.85;;;;;;;;;;4997494;28;20034;-78
2022/08/30 02:22:34;;;;;;;39.33;22.83;;;;;;;;;;5001924;28;20031;-79
2022/08/30 02:25:00;;;;;;;37.85;22.70;;;;;;;;;;5004424;28;20038;-78
2022/08/30 02:27:26;;;;;;;46.88;22.88;;;;;;;;;;4987750;28;20026;-79
2022/08/30 02:29:53;;;;;;;45.08;24.02;;;;;;;;;;5005283;28;20106;-79
2022/08/30 02:32:18;;;;;;;37.95;22.15;;;;;;;;;;4982628;28;20039;-79
2022/08/30 02:34:46;;;;;;;39.25;23.98;;;;;;;;;;4999820;28;20038;-78
2022/08/30 02:37:12;;;;;;;34.22;23.48;;;;;;;;;;4983004;28;20030;-79
2022/08/30 02:39:38;;;;;;;42.60;24.55;;;;;;;;;;5002118;28;20075;-79
2022/08/30 02:42:05;;;;;;;41.05;24.77;;;;;;;;;;4997487;28;20039;-79
2022/08/30 02:44:31;;;;;;;40.17;25.30;;;;;;;;;;4993904;28;20030;-79
2022/08/30 02:46:57;;;;;;;39.67;24.38;;;;;;;;;;4962490;28;20069;-78
2022/08/30 02:49:23;;;;;;;38.10;25.02;;;;;;;;;;4979621;28;20392;-78
2022/08/30 02:51:49;;;;;;;42.47;26.00;;;;;;;;;;4989397;28;20034;-79
2022/08/30 02:54:18;;;;;;;43.88;25.17;;;;;;;;;;4963425;28;20043;-80
2022/08/30 02:56:47;;;;;;;47.72;26.52;;;;;;;;;;4987644;28;20026;-79
2022/08/30 02:59:15;;;;;;;48.40;27.30;;;;;;;;;;4989315;28;20030;-79
2022/08/30 03:01:41;;;;;;;39.80;26.00;;;;;;;;;;4979399;28;20064;-80
2022/08/30 03:04:08;;;;;;;44.05;26.10;;;;;;;;;;4992648;28;20115;-81
2022/08/30 03:06:34;;;;;;;46.03;26.55;;;;;;;;;;4993528;28;20161;-80
2022/08/30 03:09:00;;;;;;;43.83;25.85;;;;;;;;;;4981634;28;20216;-80
2022/08/30 03:11:27;;;;;;;43.33;27.20;;;;;;;;;;4964148;28;20109;-80
2022/08/30 03:13:53;;;;;;;72.80;29.45;;;;;;;;;;4981081;28;20110;-80
2022/08/30 03:16:21;;;;;;;50.00;28.02;;;;;;;;;;4975361;28;20190;-80
2022/08/30 03:18:47;;;;;;;51.25;28.88;;;;;;;;;;4992139;28;20073;-81
2022/08/30 03:21:14;;;;;;;54.85;29.77;;;;;;;;;;4992971;28;20136;-79
2022/08/30 03:23:40;;;;;;;48.78;28.50;;;;;;;;;;4992694;28;20041;-79
2022/08/30 03:26:07;;;;;;;46.78;29.52;;;;;;;;;;4975485;28;20035;-79
2022/08/30 03:28:33;;;;;;;59.85;31.02;;;;;;;;;;4988695;28;20038;-79
2022/08/30 03:30:59;;;;;;;56.70;31.20;;;;;;;;;;4975472;28;20498;-79
2022/08/30 03:33:25;;;;;;;54.22;31.67;;;;;;;;;;4993268;28;20037;-79
2022/08/30 03:35:51;;;;;;;51.55;29.98;;;;;;;;;;4976166;28;20058;-80
2022/08/30 03:38:18;;;;;;;53.95;31.92;;;;;;;;;;4992679;28;20074;-79
2022/08/30 03:40:44;;;;;;;54.67;30.80;;;;;;;;;;4977032;28;20038;-79
2022/08/30 03:43:10;;;;;;;59.75;33.40;;;;;;;;;;4995641;28;20030;-79
2022/08/30 03:45:36;;;;;;;56.90;32.72;;;;;;;;;;4996441;28;20117;-79
2022/08/30 03:48:02;;;;;;;60.10;34.55;;;;;;;;;;4995628;28;20084;-79
2022/08/30 03:50:29;;;;;;;57.60;33.20;;;;;;;;;;4995906;28;20138;-79
2022/08/30 03:52:55;;;;;;;55.78;33.38;;;;;;;;;;4998057;28;20165;-81
2022/08/30 03:55:21;;;;;;;66.45;35.55;;;;;;;;;;5000526;28;20030;-80
2022/08/30 03:57:47;;;;;;;62.08;35.40;;;;;;;;;;4998699;28;20031;-79
2022/08/30 04:00:15;;;;;;;61.88;34.33;;;;;;;;;;4999511;28;20085;-76
2022/08/30 04:02:42;;;;;;;68.93;35.78;;;;;;;;;;4980273;28;20030;-78
2022/08/30 04:05:08;;;;;;;66.45;36.35;;;;;;;;;;4985481;28;20042;-78
2022/08/30 04:07:37;;;;;;;68.57;36.55;;;;;;;;;;4986648;28;20026;-78
2022/08/30 04:10:04;;;;;;;62.75;35.25;;;;;;;;;;4993387;28;20129;-78
2022/08/30 04:12:30;;;;;;;60.25;35.42;;;;;;;;;;4997747;28;20487;-77
2022/08/30 04:14:56;;;;;;;64.88;37.08;;;;;;;;;;4998062;28;20094;-77
2022/08/30 04:17:22;;;;;;;60.00;36.13;;;;;;;;;;4983929;28;20069;-78
2022/08/30 04:19:48;;;;;;;65.63;36.55;;;;;;;;;;4983794;28;20061;-76
2022/08/30 04:22:14;;;;;;;66.68;36.85;;;;;;;;;;4999789;28;20094;-77
2022/08/30 04:24:40;;;;;;;68.70;37.17;;;;;;;;;;4967009;28;20089;-79
2022/08/30 04:27:07;;;;;;;73.22;36.40;;;;;;;;;;4998618;28;20109;-78
2022/08/30 04:29:33;;;;;;;72.30;38.08;;;;;;;;;;5000334;28;20026;-79
2022/08/30 04:31:59;;;;;;;70.60;38.08;;;;;;;;;;5000632;28;20068;-80
2022/08/30 04:34:25;;;;;;;67.32;37.45;;;;;;;;;;4988463;28;20034;-84
2022/08/30 04:36:51;;;;;;;73.43;37.33;;;;;;;;;;4983025;28;20042;-83
2022/08/30 04:39:18;;;;;;;69.57;37.53;;;;;;;;;;4979706;28;20038;-79
2022/08/30 04:41:44;;;;;;;72.30;38.53;;;;;;;;;;4986315;28;20188;-80
2022/08/30 04:44:10;;;;;;;75.90;40.58;;;;;;;;;;4993761;28;20133;-76
2022/08/30 04:46:36;;;;;;;69.10;38.92;;;;;;;;;;4973309;28;20045;-79
2022/08/30 04:49:03;;;;;;;74.68;39.47;;;;;;;;;;4992112;28;20045;-80
2022/08/30 04:51:30;;;;;;;71.07;39.05;;;;;;;;;;4974473;28;20037;-81
2022/08/30 04:53:56;;;;;;;69.32;39.83;;;;;;;;;;4993525;28;20040;-80
2022/08/30 04:56:23;;;;;;;66.93;36.80;;;;;;;;;;4987760;28;20040;-76
2022/08/30 04:58:51;;;;;;;86.68;41.25;;;;;;;;;;4989413;28;20105;-76
2022/08/30 05:01:19;;;;;;;75.82;38.38;;;;;;;;;;4987844;28;20054;-79
2022/08/30 05:03:47;;;;;;;69.28;38.75;;;;;;;;;;4987666;28;20022;-79
2022/08/30 05:06:14;;;;;;;76.13;39.55;;;;;;;;;;4967631;28;20030;-80
2022/08/30 05:08:40;;;;;;;82.70;38.67;;;;;;;;;;4974253;28;20057;-80
2022/08/30 05:11:07;;;;;;;72.80;40.10;;;;;;;;;;4989724;28;20515;-72
2022/08/30 05:13:33;;;;;;;79.65;39.80;;;;;;;;;;4988322;28;20499;-72
2022/08/30 05:16:00;;;;;;;63.45;38.08;;;;;;;;;;4985201;28;20026;-73
2022/08/30 05:18:26;;;;;;;75.60;39.75;;;;;;;;;;4990198;28;20035;-73
2022/08/30 05:21:11;;;;;;;60.75;37.72;;;;;;;;;;4982293;28;20511;-73
2022/08/30 05:23:37;;;;;;;63.28;36.70;;;;;;;;;;4987985;28;20022;-72
2022/08/30 05:26:04;;;;;;;67.63;38.85;;;;;;;;;;4983690;28;20035;-73
2022/08/30 05:28:30;;;;;;;63.95;37.67;;;;;;;;;;4981861;28;20110;-73
2022/08/30 05:30:57;;;;;;;47.22;32.58;;;;;;;;;;4985651;28;20050;-72
2022/08/30 05:33:23;;;;;;;38.55;28.65;;;;;;;;;;4987010;28;20054;-73
2022/08/30 05:35:48;;;;;;;34.55;25.15;;;;;;;;;;4983891;28;20485;-75
2022/08/30 05:38:14;;;;;;;29.35;23.10;;;;;;;;;;4979541;28;20073;-74
2022/08/30 05:40:43;;;;;;;32.33;21.50;;;;;;;;;;4984747;28;20038;-74
2022/08/30 05:43:11;;;;;;;22.63;17.13;;;;;;;;;;4965599;28;20038;-73
2022/08/30 05:45:37;;;;;;;22.10;15.23;;;;;;;;;;4979715;28;20018;-73
2022/08/30 05:48:04;;;;;;;17.55;12.43;;;;;;;;;;4983175;28;20095;-73
2022/08/30 05:50:30;;;;;;;14.30;12.30;;;;;;;;;;4980237;28;20097;-73
2022/08/30 05:52:56;;;;;;;19.27;12.48;;;;;;;;;;4981514;28;20129;-73
2022/08/30 05:55:22;;;;;;;13.52;11.55;;;;;;;;;;4959501;28;20030;-72
2022/08/30 05:57:48;;;;;;;18.02;12.77;;;;;;;;;;4971179;28;20062;-73
2022/08/30 06:00:17;;;;;;;16.52;13.35;;;;;;;;;;4969026;28;20567;-73
2022/08/30 06:02:43;;;;;;;15.32;12.18;;;;;;;;;;4980706;28;20042;-73
2022/08/30 06:05:10;;;;;;;18.20;14.10;;;;;;;;;;4983001;28;20053;-74
2022/08/30 06:07:36;;;;;;;16.80;12.02;;;;;;;;;;4982420;28;20030;-73
2022/08/30 06:10:03;;;;;;;17.73;12.48;;;;;;;;;;4980126;28;20035;-73
2022/08/30 06:12:29;;;;;;;15.65;12.35;;;;;;;;;;4955440;28;20381;-74
2022/08/30 06:14:55;;;;;;;17.70;12.30;;;;;;;;;;4956518;28;20038;-75
2022/08/30 06:17:22;;;;;;;17.50;11.32;;;;;;;;;;4978913;28;20065;-76
2022/08/30 06:19:48;;;;;;;16.42;10.48;;;;;;;;;;4973138;28;20034;-74
2022/08/30 06:22:14;;;;;;;9.90;8.82;;;;;;;;;;4976275;28;20026;-76
2022/08/30 06:24:40;;;;;;;10.35;8.48;;;;;;;;;;4975299;28;20027;-74
2022/08/30 06:27:06;;;;;;;12.48;7.93;;;;;;;;;;4973764;28;20038;-74
2022/08/30 06:29:32;;;;;;;12.05;7.82;;;;;;;;;;4974137;28;20030;-76
2022/08/30 06:31:58;;;;;;;10.15;6.60;;;;;;;;;;4974526;28;20049;-75
2022/08/30 06:34:24;;;;;;;12.13;6.70;;;;;;;;;;4976923;28;20109;-74
2022/08/30 06:36:50;;;;;;;10.20;7.20;;;;;;;;;;4978610;28;20513;-74
2022/08/30 06:39:16;;;;;;;12.80;6.97;;;;;;;;;;4977498;28;20509;-76
2022/08/30 06:41:42;;;;;;;11.35;6.40;;;;;;;;;;4964101;28;20034;-75
2022/08/30 06:44:08;;;;;;;15.98;7.05;;;;;;;;;;4984939;28;20088;-75
2022/08/30 06:46:36;;;;;;;16.35;6.70;;;;;;;;;;4990160;28;20158;-75
2022/08/30 06:49:02;;;;;;;10.98;6.25;;;;;;;;;;4987876;28;20054;-75
2022/08/30 06:51:33;;;;;;;11.90;6.32;;;;;;;;;;4993626;28;20129;-74
2022/08/30 06:53:59;;;;;;;;;;;;;;;;;;4991540;28;20026;-74
2022/08/30 06:56:25;;;;;;;9.50;5.15;;;;;;;;;;4991607;28;20323;-75
2022/08/30 06:58:52;;;;;;;10.45;5.22;;;;;;;;;;4984820;28;20134;-77
2022/08/30 07:01:22;;;;;;;8.65;4.82;;;;;;;;;;4976310;28;20034;-75
2022/08/30 07:03:49;;;;;;;11.55;4.90;;;;;;;;;;4986816;28;20085;-74
2022/08/30 07:06:15;;;;;;;5.53;4.60;;;;;;;;;;4986818;28;20030;-76
2022/08/30 07:08:41;;;;;;;9.80;4.50;;;;;;;;;;4988981;28;20030;-74
2022/08/30 07:11:08;;;;;;;10.10;3.60;;;;;;;;;;4987921;28;20110;-75
2022/08/30 07:13:34;;;;;;;5.93;3.30;;;;;;;;;;4969035;28;20465;-73
2022/08/30 07:16:00;;;;;;;10.52;3.50;;;;;;;;;;4991530;28;20069;-71
2022/08/30 07:21:13;;;;;;;6.85;2.72;;;;;;;;;;4970400;28;20041;-70
2022/08/30 07:23:42;;;;;;;7.88;2.75;;;;;;;;;;4979016;28;20030;-69
2022/08/30 07:26:09;;;;;;;8.68;2.55;;;;;;;;;;4982099;28;20034;-69
2022/08/30 07:28:37;;;;;;;5.28;2.50;;;;;;;;;;4978650;28;20551;-70
2022/08/30 07:31:03;;;;;;;8.20;3.00;;;;;;;;;;4978425;28;20038;-70
2022/08/30 07:33:30;;;;;;;5.82;2.13;;;;;;;;;;4981789;28;20042;-69
2022/08/30 07:35:57;;;;;;;3.90;2.40;;;;;;;;;;4982521;28;20173;-70
2022/08/30 07:38:23;;;;;;;10.38;2.55;;;;;;;;;;4985235;28;20506;-69
2022/08/30 07:40:49;;;;;;;6.55;2.45;;;;;;;;;;4981439;28;20046;-70
2022/08/30 07:43:15;;;;;;;11.00;2.03;;;;;;;;;;4963646;28;20023;-70
2022/08/30 07:45:41;;;;;;;10.93;2.35;;;;;;;;;;4981378;28;20365;-69
2022/08/30 07:48:10;;;;;;;3.70;1.83;;;;;;;;;;4986685;28;20045;-72
2022/08/30 07:50:36;;;;;;;6.75;2.10;;;;;;;;;;4984619;28;20034;-70
2022/08/30 07:53:02;;;;;;;4.07;2.00;;;;;;;;;;4984365;28;20039;-70
2022/08/30 07:55:28;;;;;;;5.55;2.05;;;;;;;;;;4984562;28;20121;-69
2022/08/30 07:57:54;;;;;;;5.40;2.00;;;;;;;;;;4965194;28;20109;-68
2022/08/30 08:00:20;;;;;;;7.90;2.00;;;;;;;;;;4983875;28;20715;-71
2022/08/30 08:02:46;;;;;;;3.88;1.90;;;;;;;;;;4965214;28;20034;-70
2022/08/30 08:05:13;;;;;;;4.20;2.00;;;;;;;;;;4983222;28;20041;-69
2022/08/30 08:07:39;;;;;;;8.45;1.70;;;;;;;;;;4981749;28;20086;-69
2022/08/30 08:10:05;;;;;;;6.53;1.90;;;;;;;;;;4985369;28;20076;-69
2022/08/30 08:12:31;;;;;;;6.35;1.90;;;;;;;;;;4959236;28;20616;-69
2022/08/30 08:14:57;;;;;;;9.02;2.00;;;;;;;;;;4984456;28;20456;-70
2022/08/30 08:17:23;;;;;;;8.70;2.00;;;;;;;;;;4980053;28;20033;-71
2022/08/30 08:19:49;;;;;;;8.52;1.90;;;;;;;;;;4987571;28;20062;-71
2022/08/30 08:22:15;;;;;;;5.75;2.25;;;;;;;;;;4959913;28;20732;-71
2022/08/30 08:24:41;;;;;;;6.85;2.00;;;;;;;;;;4971809;28;20022;-72
2022/08/30 08:27:07;;;;;;;7.90;1.73;;;;;;;;;;4970183;28;20439;-70
2022/08/30 08:29:33;;;;;;;5.78;2.15;;;;;;;;;;4988848;28;20027;-70
2022/08/30 08:31:59;;;;;;;12.32;2.45;;;;;;;;;;4985361;28;20049;-70
2022/08/30 08:34:26;;;;;;;5.20;1.90;;;;;;;;;;4982045;28;20250;-72
2022/08/30 08:36:52;;;;;;;17.60;2.03;;;;;;;;;;4965214;28;20030;-70
2022/08/30 08:39:18;;;;;;;7.70;1.90;;;;;;;;;;4989057;28;20125;-71
2022/08/30 08:41:51;;;;;;;3.83;1.77;;;;;;;;;;4982922;28;20035;-70
2022/08/30 08:44:22;;;;;;;4.47;1.83;;;;;;;;;;4986448;28;20124;-72
2022/08/30 08:47:07;;;;;;;8.73;2.15;;;;;;;;;;4983580;28;20022;-71
2022/08/30 08:49:35;;;;;;;7.75;1.70;;;;;;;;;;4986173;28;20047;-70
2022/08/30 08:55:01;;;;;;;4.43;1.40;;;;;;;;;;4980585;28;20074;-72
2022/08/30 08:57:30;;;;;;;3.45;1.40;;;;;;;;;;4985406;28;20225;-70
2022/08/30 08:59:58;;;;;;;6.22;2.08;;;;;;;;;;4986906;28;20046;-70
2022/08/30 09:02:28;;;;;;;11.50;1.70;;;;;;;;;;4981425;28;20485;-70
2022/08/30 09:04:55;;;;;;;9.30;1.50;;;;;;;;;;4963947;28;20077;-70
2022/08/30 09:07:22;;;;;;;5.78;1.83;;;;;;;;;;4985983;28;20027;-69
2022/08/30 09:09:48;;;;;;;3.47;1.50;;;;;;;;;;4987495;28;20050;-72
2022/08/30 09:12:15;;;;;;;5.18;1.60;;;;;;;;;;4984897;28;20047;-69
2022/08/30 09:14:44;;;;;;;6.70;1.90;;;;;;;;;;4979945;28;20062;-69
2022/08/30 09:17:17;;;;;;;5.15;1.40;;;;;;;;;;4969200;28;20579;-71
2022/08/30 09:19:45;;;;;;;6.70;1.50;;;;;;;;;;4984809;28;20030;-71
2022/08/30 09:22:16;;;;;;;4.13;1.48;;;;;;;;;;4983846;28;20069;-70
2022/08/30 09:24:44;;;;;;;4.68;1.40;;;;;;;;;;4979805;28;20030;-70
2022/08/30 09:27:18;;;;;;;7.40;1.60;;;;;;;;;;4983729;28;20397;-71
2022/08/30 09:29:55;;;;;;;4.38;1.30;;;;;;;;;;4961643;28;20034;-71
2022/08/30 09:32:32;;;;;;;2.53;1.42;;;;;;;;;;4965502;28;20023;-69
2022/08/30 09:34:58;;;;;;;9.82;2.35;;;;;;;;;;4977187;28;20069;-70
2022/08/30 09:37:27;;;;;;;15.15;2.35;;;;;;;;;;4982213;28;20034;-70
2022/08/30 09:39:53;;;;;;;10.88;1.98;;;;;;;;;;4981084;28;20037;-69
2022/08/30 09:42:24;;;;;;;17.40;2.28;;;;;;;;;;4980767;28;20542;-70
2022/08/30 09:44:51;;;;;;;10.70;1.52;;;;;;;;;;4982277;28;20153;-71
2022/08/30 09:47:19;;;;;;;23.98;2.40;;;;;;;;;;4983260;28;20030;-71
2022/08/30 09:49:45;;;;;;;3.75;1.60;;;;;;;;;;4982004;28;20027;-71
2022/08/30 09:52:14;;;;;;;4.53;1.70;;;;;;;;;;4964667;28;20121;-70
2022/08/30 09:54:58;;;;;;;7.88;1.67;;;;;;;;;;4980796;28;20117;-69
2022/08/30 09:57:43;;;;;;;4.95;1.50;;;;;;;;;;4985329;28;20038;-69
2022/08/30 10:00:16;;;;;;;7.18;1.75;;;;;;;;;;4985467;28;20058;-70
2022/08/30 10:02:54;;;;;;;3.58;1.50;;;;;;;;;;4978778;28;20045;-70
2022/08/30 10:05:29;;;;;;;3.30;1.50;;;;;;;;;;4981790;28;20034;-70
2022/08/30 10:07:55;;;;;;;6.38;1.73;;;;;;;;;;4969394;28;20027;-70
2022/08/30 10:10:29;;;;;;;4.30;1.75;;;;;;;;;;4984777;28;20033;-69
2022/08/30 10:13:01;;;;;;;9.60;1.90;;;;;;;;;;4982837;28;20505;-69
2022/08/30 10:15:27;;;;;;;5.25;1.70;;;;;;;;;;4988936;28;20038;-69
2022/08/30 10:17:57;;;;;;;3.40;1.52;;;;;;;;;;4987762;28;20026;-70
2022/08/30 10:20:23;;;;;;;;;;;;;;;;;;4982727;28;20486;-71
2022/08/30 10:23:01;;;;;;;5.72;1.95;;;;;;;;;;4986512;28;20063;-71
2022/08/30 10:25:33;;;;;;;4.70;1.70;;;;;;;;;;4986032;28;20038;-69
2022/08/30 10:28:04;;;;;;;5.90;1.55;;;;;;;;;;4962398;28;20642;-71
2022/08/30 10:30:32;;;;;;;4.57;1.88;;;;;;;;;;4966920;28;20064;-71
2022/08/30 10:33:01;;;;;;;12.38;2.20;;;;;;;;;;4981702;28;20035;-70
2022/08/30 10:35:28;;;;;;;7.65;2.25;;;;;;;;;;4984293;28;20464;-69
2022/08/30 10:38:02;;;;;;;3.63;1.60;;;;;;;;;;4983679;28;20018;-69
2022/08/30 10:43:37;;;;;;;6.88;2.00;;;;;;;;;;4977524;28;20114;-71
2022/08/30 10:46:07;;;;;;;8.60;1.80;;;;;;;;;;4983176;28;20105;-71
2022/08/30 10:48:36;;;;;;;3.25;1.50;;;;;;;;;;4981544;28;20054;-71
2022/08/30 10:51:06;;;;;;;7.32;1.60;;;;;;;;;;4984142;28;20033;-71
2022/08/30 10:53:38;;;;;;;6.82;1.70;;;;;;;;;;4980706;28;20026;-71
2022/08/30 10:56:06;;;;;;;6.03;1.98;;;;;;;;;;4981957;28;20052;-70
2022/08/30 10:58:32;;;;;;;3.58;1.70;;;;;;;;;;4982657;28;20015;-72
2022/08/30 11:01:04;;;;;;;5.70;2.00;;;;;;;;;;4980759;28;20081;-72
2022/08/30 11:03:48;;;;;;;6.47;1.90;;;;;;;;;;4963994;28;20034;-72
2022/08/30 11:06:34;;;;;;;8.40;2.28;;;;;;;;;;4983178;28;20578;-72
2022/08/30 11:09:09;;;;;;;6.95;1.55;;;;;;;;;;4968389;28;20027;-70
2022/08/30 11:11:58;;;;;;;7.95;2.05;;;;;;;;;;4985815;28;20456;-72
2022/08/30 11:14:24;;;;;;;3.80;1.90;;;;;;;;;;4982243;28;20122;-72
2022/08/30 11:16:52;;;;;;;4.07;1.80;;;;;;;;;;4984841;28;20034;-72
2022/08/30 11:19:21;;;;;;;5.45;2.13;;;;;;;;;;4984939;28;20039;-72
2022/08/30 11:21:48;;;;;;;8.80;1.95;;;;;;;;;;4985665;28;20034;-71
2022/08/30 11:24:20;;;;;;;2.63;1.50;;;;;;;;;;4983864;28;20089;-70
2022/08/30 11:26:53;;;;;;;4.70;2.00;;;;;;;;;;4987511;28;20041;-72
2022/08/30 11:29:25;;;;;;;4.82;1.77;;;;;;;;;;4987264;28;20030;-69
2022/08/30 11:31:52;;;;;;;3.97;1.85;;;;;;;;;;4987529;28;20065;-70
2022/08/30 11:34:37;;;;;;;11.25;1.95;;;;;;;;;;4987642;28;20038;-71
2022/08/30 11:37:04;;;;;;;4.93;1.42;;;;;;;;;;4984648;28;20037;-70
2022/08/30 11:39:48;;;;;;;3.60;1.77;;;;;;;;;;4963413;28;20061;-70
2022/08/30 11:42:23;;;;;;;6.85;1.80;;;;;;;;;;4979219;28;20396;-70
2022/08/30 11:44:49;;;;;;;6.47;1.77;;;;;;;;;;4961315;28;20034;-71
2022/08/30 11:47:34;;;;;;;5.13;2.03;;;;;;;;;;4980411;28;20026;-71
2022/08/30 11:50:12;;;;;;;3.97;1.50;;;;;;;;;;4977101;28;20507;-70
2022/08/30 11:52:40;;;;;;;3.70;1.90;;;;;;;;;;4983992;28;20113;-70
2022/08/30 11:55:22;;;;;;;4.88;1.65;;;;;;;;;;4979139;28;20181;-70
2022/08/30 11:58:07;;;;;;;3.47;1.70;;;;;;;;;;4979342;28;20033;-70
2022/08/30 12:00:40;;;;;;;8.63;1.55;;;;;;;;;;4980858;28;20054;-70
2022/08/30 12:03:27;;;;;;;4.57;1.50;;;;;;;;;;4981048;28;20050;-70
2022/08/30 12:05:55;;;;;;;8.27;2.10;;;;;;;;;;4977558;28;20022;-69
2022/08/30 12:08:33;;;;;;;7.00;2.20;;;;;;;;;;4959717;28;20035;-70
2022/08/30 12:11:02;;;;;;;7.25;1.92;;;;;;;;;;4981831;28;20046;-70
2022/08/30 12:13:37;;;;;;;2.70;1.48;;;;;;;;;;4985461;28;20124;-69
2022/08/30 12:16:21;;;;;;;6.38;1.40;;;;;;;;;;4978440;28;20526;-70
2022/08/30 12:18:59;;;;;;;3.75;1.60;;;;;;;;;;4975243;28;20062;-71
2022/08/30 12:21:26;;;;;;;10.32;1.95;;;;;;;;;;4981414;28;20038;-69
2022/08/30 12:24:11;;;;;;;2.83;1.30;;;;;;;;;;4981689;28;20030;-70
2022/08/30 12:26:38;;;;;;;4.20;1.88;;;;;;;;;;4963585;28;20088;-71
2022/08/30 12:29:17;;;;;;;7.13;1.80;;;;;;;;;;4977584;28;20523;-70
2022/08/30 12:31:45;;;;;;;3.20;1.58;;;;;;;;;;4975123;28;20042;-70
2022/08/30 12:34:20;;;;;;;2.70;1.25;;;;;;;;;;4979540;28;20125;-70
2022/08/30 12:37:03;;;;;;;2.83;1.20;;;;;;;;;;4978115;28;20510;-71
2022/08/30 12:39:37;;;;;;;3.45;1.45;;;;;;;;;;4983868;28;20026;-69
2022/08/30 12:42:23;;;;;;;6.43;1.90;;;;;;;;;;4984286;28;20091;-70
2022/08/30 12:44:50;;;;;;;8.52;1.95;;;;;;;;;;4981628;28;20026;-70
2022/08/30 12:47:19;;;;;;;4.47;1.70;;;;;;;;;;4979947;28;20153;-70
2022/08/30 12:49:45;;;;;;;6.30;1.40;;;;;;;;;;4983658;28;20108;-71
2022/08/30 12:52:17;;;;;;;2.88;1.50;;;;;;;;;;4965925;28;20477;-70
2022/08/30 12:54:44;;;;;;;4.35;2.17;;;;;;;;;;4978638;28;20057;-70
2022/08/30 12:57:12;;;;;;;8.38;1.90;;;;;;;;;;4988379;28;20061;-69
2022/08/30 12:59:46;;;;;;;4.30;1.88;;;;;;;;;;4965824;28;20065;-69
2022/08/30 13:02:17;;;;;;;3.78;1.40;;;;;;;;;;4982829;28;20036;-70
2022/08/30 13:04:46;;;;;;;9.18;1.40;;;;;;;;;;4980426;28;20531;-68
2022/08/30 13:07:23;;;;;;;4.10;2.00;;;;;;;;;;4987139;28;20030;-68
2022/08/30 13:09:49;;;;;;;8.18;1.85;;;;;;;;;;4949779;28;20061;-69
2022/08/30 13:12:25;;;;;;;6.72;1.90;;;;;;;;;;4971054;28;20491;-71
2022/08/30 13:14:52;;;;;;;6.72;1.83;;;;;;;;;;4987360;28;20522;-69
2022/08/30 13:17:18;;;;;;;7.07;1.90;;;;;;;;;;4987558;28;20026;-70
2022/08/30 13:19:54;;;;;;;9.40;1.70;;;;;;;;;;4970097;28;20032;-71
2022/08/30 13:22:25;;;;;;;3.63;1.70;;;;;;;;;;4983238;28;20038;-70
2022/08/30 13:24:52;;;;;;;7.30;1.90;;;;;;;;;;4966981;28;20030;-71
2022/08/30 13:27:18;;;;;;;4.63;1.50;;;;;;;;;;4980581;28;20114;-71
2022/08/30 13:29:44;;;;;;;5.15;1.88;;;;;;;;;;4985236;28;20018;-70
2022/08/30 13:32:12;;;;;;;10.82;2.10;;;;;;;;;;4983811;28;20039;-71
2022/08/30 13:34:38;;;;;;;6.40;1.55;;;;;;;;;;4984340;28;20125;-71
2022/08/30 13:37:06;;;;;;;4.28;1.67;;;;;;;;;;4970434;28;20038;-73
2022/08/30 13:39:32;;;;;;;6.47;1.70;;;;;;;;;;4971752;28;20034;-72
2022/08/30 13:41:58;;;;;;;5.82;1.55;;;;;;;;;;4987535;28;20046;-72
2022/08/30 13:44:24;;;;;;;4.00;2.08;;;;;;;;;;4963301;28;20026;-72
2022/08/30 13:46:52;;;;;;;8.65;1.60;;;;;;;;;;4986464;28;20031;-73
2022/08/30 13:49:31;;;;;;;8.77;1.63;;;;;;;;;;4980654;28;20073;-74
2022/08/30 13:51:57;;;;;;;6.03;1.85;;;;;;;;;;4983895;28;20038;-72
2022/08/30 13:54:23;;;;;;;4.45;1.58;;;;;;;;;;4978875;28;20045;-70
2022/08/30 13:56:50;;;;;;;3.95;1.30;;;;;;;;;;4985458;28;20109;-71
2022/08/30 13:59:17;;;;;;;11.32;1.85;;;;;;;;;;4987128;28;20460;-72
2022/08/30 14:01:43;;;;;;;2.95;1.40;;;;;;;;;;4984091;28;20034;-71
2022/08/30 14:04:09;;;;;;;2.60;1.35;;;;;;;;;;4978732;28;20058;-71
2022/08/30 14:06:35;;;;;;;6.22;1.60;;;;;;;;;;4982718;28;20030;-70
2022/08/30 14:09:05;;;;;;;7.25;1.65;;;;;;;;;;4985073;28;20022;-71
2022/08/30 14:11:31;;;;;;;3.33;1.58;;;;;;;;;;4981578;28;20045;-69
2022/08/30 14:13:57;;;;;;;8.45;1.63;;;;;;;;;;4984241;28;20042;-73
2022/08/30 14:16:23;;;;;;;3.47;1.42;;;;;;;;;;4981140;28;20041;-72
2022/08/30 14:18:49;;;;;;;6.25;1.75;;;;;;;;;;4982297;28;20049;-70
2022/08/30 14:21:15;;;;;;;6.60;1.60;;;;;;;;;;4985422;28;20030;-71
2022/08/30 14:23:41;;;;;;;8.68;1.50;;;;;;;;;;4982364;28;20058;-72
2022/08/30 14:26:14;;;;;;;5.45;1.40;;;;;;;;;;4981005;28;20073;-72
2022/08/30 14:28:40;;;;;;;3.45;1.50;;;;;;;;;;4985168;28;20031;-73
2022/08/30 14:31:07;;;;;;;6.75;1.52;;;;;;;;;;4981481;28;20031;-72
2022/08/30 14:33:34;;;;;;;7.40;1.60;;;;;;;;;;4984622;28;20034;-71
2022/08/30 14:36:00;;;;;;;4.28;1.48;;;;;;;;;;4981128;28;20061;-72
2022/08/30 14:38:26;;;;;;;5.55;1.58;;;;;;;;;;4981159;28;20229;-74
2022/08/30 14:40:53;;;;;;;3.95;1.45;;;;;;;;;;4978505;28;20030;-74
2022/08/30 14:43:19;;;;;;;5.82;1.45;;;;;;;;;;4977296;28;20038;-72
2022/08/30 14:45:45;;;;;;;8.88;1.42;;;;;;;;;;4976661;28;20026;-73
2022/08/30 14:48:11;;;;;;;7.88;1.45;;;;;;;;;;4982689;28;20097;-72